Route Details

Aircraft Information
Group: North America Fleet
Types: B738, B752, B762, B763
Route Data
Distance: 382nm
Duration: 1h 39m
Origin METAR: KRFD 080054Z 27008KT 10SM CLR 02/M04 A3017 RMK AO2 SLP224 T00171039
Dest. METAR: KBNA 080053Z 20003KT 10SM BKN070 BKN250 18/09 A3021 RMK AO2 SLP228 T01780089
Freight Data
(for Feb 8, 2023)
Load Factor:
48%
Manifested Cargo: 29,319lbs
Financial History
Total Freight: 465,521lbs
Average Load: 0lbs/flt
Fuel Used: 122,879lbs
Avg. Fuel Used: 0lbs/flt
Fuel Expense: $78,451
Avg. Fuel Expense: $0
Avg. Fuel Cost: $0/lbs
Total Gross Income: $691,858
Pilot Pay: $1,658
Total Expenses: $82,734
Total Revenue: $528,397
Average Revenue: $0

Capitol Logistics 303




KRFD
Chicago/Rockford International Airport
Rockford, Illinois
KBNA
Nashville International Airport
Nashville, Tennessee

Activity Log

Date Flight Route Aircraft Duration
05/21/2022 CPX407 JOT GUIDO J73 PXV GUMMA RYYMN2 B752 1h 18m
09/05/2021 CPX407 JOT GUIDO J73 PXV GUMMA RYYMN2 B752 1h 32m
04/26/2021 CPX407 JOT GUIDO J73 PXV GUMMA RYYMN2 B752 1h 11m
04/24/2021 CPX407 JOT GUIDO J73 PXV GUMMA RYYMN2 B738 1h 23m
04/10/2021 CPX407 JOT GUIDO J73 PXV GUMMA RYYMN2 B738 1h 20m
07/03/2020 CPX407 JOT GUIDO J73 PXV GUMMA RYYMN2 B738 1h 14m
11/26/2019 CPX407 JOT GUIDO J73 PXV GUMMA RYYMN2 B738 1h 21m
11/12/2019 CPX407 JOT GUIDO J73 PXV GUMMA RYYMN2 B738 1h 17m
10/31/2019 CPX407 N0458F410 RFD EON BVT J89 KURTZ LVT PASLY4 B752 1h 27m
09/18/2019 CPX407 N0450F410 RFD EON BVT J89 KURTZ LVT PASLY4 B752 1h 38m
03/30/2019 CPX407 JOT GUIDO J73 PXV GUMMA RYYMN2 B752 1h 19m
03/25/2019 CPX407 $$ B752 1h 25m